Time;durP1;ratioP1;P1;durP2;ratioP2;P2;SDS_P1;SDS_P2;PMS_P1;PMS_P2;Temp;Humidity;BMP_temperature;BMP_pressure;BME280_temperature;BME280_humidity;BME280_pressure;Samples;Min_cycle;Max_cycle;Signal;HPM_P1;HPM_P2
2021/07/04 00:00:31;;;;;;;22.27;19.97;;;;;;;17.44;85.89;100545.66;699153;28;1152;-53
2021/07/04 00:00:52;;;;;;;23.73;21.33;;;;;;;17.40;86.86;100541.41;698703;28;1413;-52
2021/07/04 00:01:13;;;;;;;23.98;21.63;;;;;;;17.38;86.87;100540.56;698792;28;1210;-50
2021/07/04 00:01:33;;;;;;;24.15;21.75;;;;;;;17.37;86.94;100534.44;698811;28;2684;-49
2021/07/04 00:01:54;;;;;;;24.00;21.60;;;;;;;17.36;87.12;100538.88;691319;28;4376;-54
2021/07/04 00:02:22;;;;;;;24.42;22.02;;;;;;;17.35;85.73;100539.78;697615;28;1605;-51
2021/07/04 00:02:42;;;;;;;22.50;20.33;;;;;;;17.38;85.35;100540.56;697843;28;3790;-53
2021/07/04 00:03:04;;;;;;;21.80;19.67;;;;;;;17.37;86.40;100542.34;699093;28;4839;-53
2021/07/04 00:03:25;;;;;;;23.10;20.80;;;;;;;17.33;87.00;100538.09;697187;28;1619;-49
2021/07/04 00:03:45;;;;;;;23.03;20.73;;;;;;;17.30;87.54;100539.06;696220;28;1261;-53
2021/07/04 00:04:06;;;;;;;24.07;21.57;;;;;;;17.28;87.46;100538.28;697915;28;1388;-52
2021/07/04 00:04:27;;;;;;;23.83;21.33;;;;;;;17.26;87.47;100532.16;698591;28;1188;-52
2021/07/04 00:04:47;;;;;;;23.73;21.27;;;;;;;17.27;87.30;100536.53;697428;28;4440;-50
2021/07/04 00:05:11;;;;;;;23.43;20.93;;;;;;;17.26;86.88;100537.44;697739;28;1361;-54
2021/07/04 00:05:35;;;;;;;22.20;19.90;;;;;;;17.28;87.19;100534.75;698526;28;1843;-54
2021/07/04 00:05:55;;;;;;;23.05;20.65;;;;;;;17.25;87.47;100529.56;697624;28;1420;-55
2021/07/04 00:06:15;;;;;;;23.80;21.40;;;;;;;17.25;87.74;100532.22;699837;28;1362;-51
2021/07/04 00:06:36;;;;;;;23.77;21.43;;;;;;;17.24;87.59;100534.00;700672;28;2305;-51
2021/07/04 00:06:57;;;;;;;22.40;20.20;;;;;;;17.25;86.60;100530.47;701912;28;1605;-52
2021/07/04 00:07:17;;;;;;;21.55;19.42;;;;;;;17.26;86.09;100528.66;700849;28;1563;-54
2021/07/04 00:07:41;;;;;;;21.70;19.43;;;;;;;17.29;86.49;100532.06;701263;28;1090;-50
2021/07/04 00:08:03;;;;;;;23.48;21.00;;;;;;;17.29;87.39;100531.19;702026;28;5266;-50
2021/07/04 00:08:24;;;;;;;22.80;20.58;;;;;;;17.29;86.88;100534.72;701283;28;1487;-53
2021/07/04 00:08:45;;;;;;;23.27;20.98;;;;;;;17.27;87.04;100523.31;701489;28;1206;-52
2021/07/04 00:09:05;;;;;;;24.10;21.80;;;;;;;17.26;87.52;100528.66;702098;28;1227;-54
2021/07/04 00:09:26;;;;;;;23.60;21.30;;;;;;;17.25;87.03;100525.19;701407;28;1154;-54
2021/07/04 00:09:46;;;;;;;22.38;20.27;;;;;;;17.26;86.96;100531.31;700999;28;1321;-52
2021/07/04 00:10:10;;;;;;;22.93;20.73;;;;;;;17.24;87.98;100523.44;699818;28;3947;-51
2021/07/04 00:10:34;;;;;;;23.48;21.08;;;;;;;17.24;86.60;100527.84;701493;28;1975;-50
2021/07/04 00:11:00;;;;;;;20.98;19.02;;;;;;;17.30;86.70;100530.28;700745;28;4543;-53
2021/07/04 00:11:23;;;;;;;20.95;18.90;;;;;;;17.30;86.91;100522.38;698808;28;1335;-50
2021/07/04 00:11:43;;;;;;;21.60;19.30;;;;;;;17.29;86.47;100524.16;697168;28;1310;-51
2021/07/04 00:12:05;;;;;;;21.53;19.33;;;;;;;17.28;87.38;100525.06;697394;28;1297;-54
2021/07/04 00:12:25;;;;;;;22.48;20.15;;;;;;;17.26;87.61;100520.75;697812;28;2029;-54
2021/07/04 00:12:46;;;;;;;22.70;20.47;;;;;;;17.26;87.01;100518.94;697455;28;977;-53
2021/07/04 00:13:06;;;;;;;22.17;20.02;;;;;;;17.25;87.61;100519.00;697242;28;1194;-53
2021/07/04 00:13:28;;;;;;;21.20;19.17;;;;;;;17.26;85.59;100518.94;699094;28;1443;-52
2021/07/04 00:13:49;;;;;;;19.02;17.23;;;;;;;17.36;84.42;100523.00;700694;28;4505;-50
2021/07/04 00:14:09;;;;;;;20.30;18.20;;;;;;;17.42;84.32;100521.03;701488;28;4312;-51
2021/07/04 00:14:30;;;;;;;20.52;18.48;;;;;;;17.43;85.98;100521.03;701238;28;1070;-54
2021/07/04 00:14:50;;;;;;;20.80;18.80;;;;;;;17.42;86.00;100515.75;700459;28;1425;-52
2021/07/04 00:15:14;;;;;;;21.20;19.10;;;;;;;17.40;86.67;100514.97;701286;28;1390;-51
2021/07/04 00:15:40;;;;;;;21.55;19.45;;;;;;;17.36;86.52;100522.13;702440;28;1089;-49
2021/07/04 00:16:00;;;;;;;21.83;19.58;;;;;;;17.34;86.43;100519.53;701092;28;1353;-53
2021/07/04 00:16:21;;;;;;;22.27;19.98;;;;;;;17.33;86.40;100517.84;701524;28;1276;-51
2021/07/04 00:16:45;;;;;;;21.73;19.63;;;;;;;17.32;86.29;100521.41;700160;28;4513;-50
2021/07/04 00:17:05;;;;;;;22.10;19.95;;;;;;;17.31;86.33;100517.03;701492;28;3751;-52
2021/07/04 00:17:26;;;;;;;22.17;19.97;;;;;;;17.31;86.44;100522.31;700653;28;1535;-51
2021/07/04 00:17:47;;;;;;;23.07;20.67;;;;;;;17.28;86.84;100514.50;700313;28;1432;-52
2021/07/04 00:18:12;;;;;;;23.90;21.20;;;;;;;17.26;86.73;100521.59;701095;28;1288;-52
2021/07/04 00:18:34;;;;;;;21.00;18.88;;;;;;;17.30;85.90;100523.22;700513;28;2339;-51
2021/07/04 00:18:55;;;;;;;20.92;18.92;;;;;;;17.29;86.10;100521.50;701450;28;1289;-53
2021/07/04 00:19:15;;;;;;;21.40;19.38;;;;;;;17.28;86.77;100511.84;699748;28;1484;-50
2021/07/04 00:19:36;;;;;;;23.07;20.73;;;;;;;17.28;87.21;100530.34;698693;28;1245;-50
2021/07/04 00:19:56;;;;;;;23.90;21.27;;;;;;;17.28;87.16;100518.88;698693;28;4407;-50
2021/07/04 00:20:18;;;;;;;23.38;21.02;;;;;;;17.26;86.51;100518.94;698707;28;1111;-52
2021/07/04 00:20:40;;;;;;;22.63;20.33;;;;;;;17.27;86.60;100515.41;699064;28;3397;-50
2021/07/04 00:21:07;;;;;;;21.92;19.77;;;;;;;17.28;86.56;100522.41;697635;28;1232;-52
2021/07/04 00:21:28;;;;;;;22.05;19.75;;;;;;;17.26;86.57;100512.81;698591;28;1351;-49
2021/07/04 00:21:49;;;;;;;22.85;20.55;;;;;;;17.28;86.29;100516.25;699598;28;1662;-49
2021/07/04 00:22:12;;;;;;;21.67;19.38;;;;;;;17.29;86.51;100515.34;699537;28;1211;-50
2021/07/04 00:22:32;;;;;;;22.35;20.15;;;;;;;17.28;86.81;100516.25;700106;28;1098;-50
2021/07/04 00:22:54;;;;;;;22.07;19.90;;;;;;;17.27;86.79;100512.75;699059;28;4429;-53
2021/07/04 00:23:16;;;;;;;21.98;19.88;;;;;;;17.24;87.19;100518.16;701534;28;1026;-52
2021/07/04 00:23:37;;;;;;;23.13;20.83;;;;;;;17.23;87.11;100516.44;699038;28;1105;-50
2021/07/04 00:23:58;;;;;;;22.40;20.20;;;;;;;17.23;86.59;100513.78;699158;28;1582;-52
2021/07/04 00:24:21;;;;;;;22.48;20.23;;;;;;;17.23;86.53;100519.06;699804;28;4426;-50
2021/07/04 00:24:41;;;;;;;21.48;19.27;;;;;;;17.26;85.70;100515.47;697892;28;1518;-53
2021/07/04 00:25:07;;;;;;;21.20;19.10;;;;;;;17.28;86.10;100521.53;699727;28;1321;-49
2021/07/04 00:25:29;;;;;;;21.13;19.13;;;;;;;17.28;86.73;100510.97;700146;28;1454;-51
2021/07/04 00:25:49;;;;;;;21.80;19.67;;;;;;;17.27;87.07;100515.41;697531;28;4496;-52
2021/07/04 00:26:11;;;;;;;22.52;20.23;;;;;;;17.26;86.86;100516.31;700044;28;1300;-52
2021/07/04 00:26:32;;;;;;;22.10;19.85;;;;;;;17.26;86.76;100511.03;698841;28;1839;-52
2021/07/04 00:26:53;;;;;;;21.00;19.00;;;;;;;17.27;86.53;100518.03;698357;28;1246;-50
2021/07/04 00:27:13;;;;;;;21.83;19.67;;;;;;;17.26;86.73;100518.94;699520;28;1158;-51
2021/07/04 00:27:34;;;;;;;21.10;19.00;;;;;;;17.24;86.95;100512.88;699651;28;1614;-56
2021/07/04 00:27:55;;;;;;;21.63;19.43;;;;;;;17.26;86.74;100513.66;698073;28;3846;-52
2021/07/04 00:28:16;;;;;;;21.42;19.23;;;;;;;17.25;87.21;100514.59;697904;28;1043;-54
2021/07/04 00:28:36;;;;;;;21.73;19.40;;;;;;;17.25;86.82;100511.09;697371;28;1773;-51
2021/07/04 00:28:57;;;;;;;21.65;19.33;;;;;;;17.23;87.01;100511.13;698167;28;4285;-53
2021/07/04 00:29:17;;;;;;;22.92;20.38;;;;;;;17.25;87.09;100511.97;698482;28;1116;-51
2021/07/04 00:29:38;;;;;;;21.63;19.37;;;;;;;17.24;86.60;100512.00;699298;28;1146;-50
2021/07/04 00:29:58;;;;;;;21.83;19.63;;;;;;;17.23;87.13;100513.78;702299;28;1301;-53
2021/07/04 00:30:20;;;;;;;21.93;19.73;;;;;;;17.24;87.11;100517.28;700805;28;1631;-53
2021/07/04 00:30:41;;;;;;;20.92;18.83;;;;;;;17.22;86.77;100514.69;698974;28;1908;-53
2021/07/04 00:31:01;;;;;;;21.98;19.77;;;;;;;17.23;87.26;100511.13;699258;28;1301;-51
2021/07/04 00:31:22;;;;;;;21.27;19.17;;;;;;;17.23;87.19;100513.78;700048;28;3264;-52
2021/07/04 00:31:42;;;;;;;21.30;19.20;;;;;;;17.22;87.14;100511.19;698950;28;4584;-51
2021/07/04 00:32:03;;;;;;;21.03;18.93;;;;;;;17.21;86.55;100507.69;700013;28;1345;-51
2021/07/04 00:32:23;;;;;;;19.95;17.92;;;;;;;17.23;86.01;100510.28;700230;28;1605;-54
2021/07/04 00:32:44;;;;;;;20.50;18.50;;;;;;;17.25;86.55;100508.44;700510;28;1602;-54
2021/07/04 00:33:05;;;;;;;21.02;19.05;;;;;;;17.24;86.99;100510.22;700474;28;1343;-51
2021/07/04 00:33:26;;;;;;;22.15;20.02;;;;;;;17.20;87.88;100511.25;700643;28;1103;-53
2021/07/04 00:33:46;;;;;;;22.27;19.88;;;;;;;17.19;88.13;100507.72;701651;28;1176;-50
2021/07/04 00:34:06;;;;;;;22.30;19.90;;;;;;;17.17;87.97;100508.72;701840;28;1070;-53
2021/07/04 00:34:27;;;;;;;22.50;20.23;;;;;;;17.17;87.70;100509.56;701838;28;1047;-52
2021/07/04 00:34:47;;;;;;;22.33;20.13;;;;;;;17.17;87.03;100503.44;700925;28;4517;-52
2021/07/04 00:35:10;;;;;;;21.52;19.42;;;;;;;17.15;87.67;100505.25;701798;28;2335;-51
2021/07/04 00:35:31;;;;;;;22.90;20.60;;;;;;;17.14;87.90;100501.78;700708;28;1415;-54
2021/07/04 00:35:52;;;;;;;22.15;19.88;;;;;;;17.13;88.22;100504.47;699531;28;1387;-54
2021/07/04 00:36:12;;;;;;;22.77;20.47;;;;;;;17.13;87.93;100504.47;698867;28;1272;-54
2021/07/04 00:36:33;;;;;;;23.58;21.17;;;;;;;17.13;87.72;100499.19;699550;28;2392;-51
2021/07/04 00:36:53;;;;;;;23.13;20.83;;;;;;;17.12;87.71;100497.44;700206;28;1196;-50
2021/07/04 00:37:13;;;;;;;21.37;19.33;;;;;;;17.15;87.22;100499.97;696366;28;1129;-53
2021/07/04 00:37:34;;;;;;;19.97;18.00;;;;;;;17.15;87.20;100507.91;697699;28;1528;-51
2021/07/04 00:37:55;;;;;;;21.80;19.60;;;;;;;17.15;87.55;100502.63;699001;28;4479;-55
2021/07/04 00:38:15;;;;;;;21.33;19.23;;;;;;;17.18;86.07;100502.50;697546;28;1641;-55
2021/07/04 00:38:36;;;;;;;18.88;16.98;;;;;;;17.26;85.44;100502.25;697148;28;1172;-54
2021/07/04 00:38:56;;;;;;;19.10;17.20;;;;;;;17.32;86.05;100499.38;693519;28;3868;-50
2021/07/04 00:39:17;;;;;;;20.75;18.58;;;;;;;17.31;86.47;100505.59;693726;28;1196;-55
2021/07/04 00:39:37;;;;;;;21.15;19.00;;;;;;;17.29;86.89;100505.66;690728;28;1390;-54
2021/07/04 00:39:58;;;;;;;21.88;19.73;;;;;;;17.28;86.88;100500.41;692347;28;1219;-53
2021/07/04 00:40:20;;;;;;;21.90;19.63;;;;;;;17.27;86.48;100499.56;694709;28;1107;-54
2021/07/04 00:40:42;;;;;;;21.77;19.55;;;;;;;17.27;86.85;100498.69;692745;28;4356;-54
2021/07/04 00:41:03;;;;;;;22.30;20.05;;;;;;;17.26;87.23;100502.25;695539;28;1266;-53
2021/07/04 00:41:24;;;;;;;21.90;19.70;;;;;;;17.24;86.65;100497.03;697186;28;1273;-53
2021/07/04 00:41:45;;;;;;;21.33;19.13;;;;;;;17.22;87.08;100504.13;693842;28;3136;-53
2021/07/04 00:42:06;;;;;;;22.13;19.83;;;;;;;17.19;87.64;100505.09;694821;28;1774;-51
2021/07/04 00:42:26;;;;;;;22.90;20.50;;;;;;;17.18;87.63;100497.22;693672;28;1128;-51
2021/07/04 00:42:47;;;;;;;22.63;20.42;;;;;;;17.18;87.76;100495.47;694612;28;1345;-54
2021/07/04 00:43:08;;;;;;;22.92;20.63;;;;;;;17.18;88.00;100508.66;693893;28;1467;-50
2021/07/04 00:43:29;;;;;;;22.97;20.57;;;;;;;17.16;87.59;100502.56;690766;28;1330;-52
2021/07/04 00:43:50;;;;;;;22.63;20.35;;;;;;;17.15;87.43;100498.19;694145;28;4298;-51
2021/07/04 00:44:10;;;;;;;22.40;20.30;;;;;;;17.14;87.49;100500.88;693679;28;1307;-54
2021/07/04 00:44:30;;;;;;;22.93;20.83;;;;;;;17.13;87.91;100504.47;691358;28;1176;-51
2021/07/04 00:44:52;;;;;;;23.92;21.52;;;;;;;17.10;88.15;100500.16;695933;28;988;-49
2021/07/04 00:45:18;;;;;;;23.52;21.23;;;;;;;17.12;88.00;100497.44;694339;28;1457;-51
2021/07/04 00:45:40;;;;;;;24.67;22.17;;;;;;;17.10;88.08;100500.16;696121;28;2535;-52
2021/07/04 00:46:00;;;;;;;24.57;22.07;;;;;;;17.10;88.01;100500.16;696977;28;1241;-52
2021/07/04 00:46:21;;;;;;;23.92;21.42;;;;;;;17.10;87.50;100501.91;695609;28;1201;-53
2021/07/04 00:46:41;;;;;;;21.85;19.55;;;;;;;17.12;86.71;100500.09;693689;28;4456;-51
2021/07/04 00:47:02;;;;;;;20.00;18.00;;;;;;;17.15;86.14;100498.19;693006;28;1340;-53
2021/07/04 00:47:23;;;;;;;18.92;17.02;;;;;;;17.19;86.23;100501.59;692207;28;1281;-50
2021/07/04 00:47:46;;;;;;;19.98;17.90;;;;;;;17.19;86.12;100499.81;688334;28;1318;-54
2021/07/04 00:48:08;;;;;;;21.58;19.40;;;;;;;17.19;87.26;100505.09;692237;28;1483;-50
2021/07/04 00:48:28;;;;;;;22.63;20.33;;;;;;;17.15;88.01;100498.19;692782;28;1158;-51
2021/07/04 00:48:49;;;;;;;22.53;20.13;;;;;;;17.15;86.83;100497.34;695426;28;1453;-51
2021/07/04 00:49:10;;;;;;;20.83;18.63;;;;;;;17.19;86.57;100501.59;697610;28;4147;-51
2021/07/04 00:49:30;;;;;;;20.73;18.63;;;;;;;17.17;87.01;100500.81;697358;28;1806;-51
2021/07/04 00:49:51;;;;;;;21.40;19.20;;;;;;;17.18;86.88;100497.22;693364;28;4533;-53
2021/07/04 00:50:13;;;;;;;20.92;18.83;;;;;;;17.16;86.88;100499.91;694270;28;1421;-50
2021/07/04 00:50:34;;;;;;;22.02;19.85;;;;;;;17.17;87.23;100492.88;693707;28;1922;-53
2021/07/04 00:50:54;;;;;;;20.35;18.38;;;;;;;17.16;86.97;100499.91;690234;28;1461;-52
2021/07/04 00:51:16;;;;;;;20.23;18.23;;;;;;;17.17;86.68;100496.38;691958;28;1281;-52
2021/07/04 00:51:37;;;;;;;20.90;18.80;;;;;;;17.18;86.98;100497.22;695022;28;1385;-51
2021/07/04 00:51:59;;;;;;;21.35;19.15;;;;;;;17.17;87.17;100500.81;697199;28;1547;-51
2021/07/04 00:52:20;;;;;;;21.20;19.00;;;;;;;17.16;87.08;100493.78;694989;28;1464;-53
2021/07/04 00:52:42;;;;;;;20.52;18.52;;;;;;;17.16;86.95;100499.91;690303;28;4635;-52
2021/07/04 00:53:03;;;;;;;21.67;19.48;;;;;;;17.16;87.28;100493.78;692611;28;1159;-51
2021/07/04 00:53:28;;;;;;;21.83;19.55;;;;;;;17.13;87.38;100500.03;693100;28;1294;-51
2021/07/04 00:53:48;;;;;;;21.03;19.00;;;;;;;17.11;87.49;100493.97;694068;28;1452;-54
2021/07/04 00:54:09;;;;;;;21.80;19.60;;;;;;;17.12;87.17;100495.66;692980;28;1422;-53
2021/07/04 00:54:30;;;;;;;20.77;18.67;;;;;;;17.13;86.69;100491.25;695187;28;1167;-50
2021/07/04 00:54:51;;;;;;;21.53;19.20;;;;;;;17.12;87.05;100489.53;694077;28;1255;-53
2021/07/04 00:55:14;;;;;;;22.38;20.10;;;;;;;17.10;87.49;100494.88;690188;28;1430;-52
2021/07/04 00:55:35;;;;;;;21.80;19.60;;;;;;;17.09;87.76;100495.78;686300;28;1719;-54
2021/07/04 00:56:03;;;;;;;19.90;17.90;;;;;;;17.10;87.73;100494.88;689159;28;5077;-50
2021/07/04 00:56:25;;;;;;;21.02;18.90;;;;;;;17.08;88.26;100496.69;690900;28;3926;-51
2021/07/04 00:56:46;;;;;;;21.60;19.45;;;;;;;17.06;88.34;100497.66;691279;28;1082;-52
2021/07/04 00:57:07;;;;;;;20.55;18.45;;;;;;;17.07;87.53;100489.69;694545;28;1456;-55
2021/07/04 00:57:28;;;;;;;20.60;18.50;;;;;;;17.09;87.56;100489.63;696286;28;1744;-51
2021/07/04 00:57:49;;;;;;;20.40;18.33;;;;;;;17.10;86.53;100489.59;697199;28;1556;-52
2021/07/04 00:58:11;;;;;;;18.90;16.95;;;;;;;17.13;86.89;100491.25;697956;28;1001;-51
2021/07/04 00:58:33;;;;;;;20.70;18.60;;;;;;;17.09;87.60;100492.28;694996;28;1464;-55
2021/07/04 00:58:55;;;;;;;20.40;18.30;;;;;;;17.10;87.35;100493.97;693808;28;4462;-53
2021/07/04 00:59:16;;;;;;;20.30;18.20;;;;;;;17.09;87.50;100495.78;691275;28;1340;-51
2021/07/04 00:59:37;;;;;;;21.25;19.10;;;;;;;17.09;87.80;100495.78;692297;28;1397;-51
2021/07/04 00:59:57;;;;;;;20.85;18.75;;;;;;;17.09;87.41;100487.84;691534;28;3557;-54
2021/07/04 01:00:24;;;;;;;20.53;18.47;;;;;;;17.08;88.19;100493.19;692208;28;1222;-51
2021/07/04 01:00:44;;;;;;;21.83;19.52;;;;;;;17.07;88.20;100488.81;689684;28;1271;-52
2021/07/04 01:01:06;;;;;;;21.90;19.75;;;;;;;17.07;88.40;100491.44;691327;28;1956;-51
2021/07/04 01:01:27;;;;;;;22.57;20.27;;;;;;;17.06;87.80;100489.72;688606;28;2809;-50
2021/07/04 01:01:48;;;;;;;21.58;19.48;;;;;;;17.06;87.96;100487.06;689427;28;4325;-53
2021/07/04 01:02:08;;;;;;;21.58;19.38;;;;;;;17.05;87.87;100485.38;689123;28;1274;-51
2021/07/04 01:02:29;;;;;;;21.63;19.33;;;;;;;17.05;87.98;100485.38;690180;28;1323;-51
2021/07/04 01:02:51;;;;;;;22.02;19.63;;;;;;;17.06;87.95;100489.72;691261;28;1442;-50
2021/07/04 01:03:11;;;;;;;21.50;19.30;;;;;;;17.04;87.87;100481.84;693499;28;1024;-51
2021/07/04 01:03:35;;;;;;;22.35;20.13;;;;;;;17.03;87.46;100485.44;696336;28;3743;-52
2021/07/04 01:03:56;;;;;;;20.55;18.55;;;;;;;17.06;87.53;100485.31;693192;28;1304;-53
2021/07/04 01:04:16;;;;;;;19.90;18.00;;;;;;;17.07;87.62;100487.06;694477;28;1368;-54
2021/07/04 01:04:37;;;;;;;20.35;18.25;;;;;;;17.08;87.28;100482.63;694288;28;1355;-52
2021/07/04 01:04:58;;;;;;;20.67;18.42;;;;;;;17.07;87.55;100479.13;693801;28;4670;-51
2021/07/04 01:05:39;;;;;;;20.47;18.27;;;;;;;17.06;87.94;100481.78;694979;28;1505;-52
2021/07/04 01:05:59;;;;;;;20.98;18.88;;;;;;;17.06;87.72;100485.31;697798;28;1189;-51
2021/07/04 01:06:19;;;;;;;21.77;19.48;;;;;;;17.05;87.56;100486.22;694455;28;1408;-50
2021/07/04 01:06:41;;;;;;;21.75;19.45;;;;;;;17.05;87.27;100485.38;695547;28;1575;-50
2021/07/04 01:07:02;;;;;;;20.50;18.50;;;;;;;17.07;87.61;100480.88;689973;28;3369;-52
2021/07/04 01:07:23;;;;;;;20.27;18.35;;;;;;;17.08;87.53;100474.69;691902;28;3583;-54
2021/07/04 01:07:45;;;;;;;19.52;17.70;;;;;;;17.08;87.00;100475.56;689111;28;4770;-53
2021/07/04 01:08:07;;;;;;;18.63;16.73;;;;;;;17.10;86.52;100484.31;690323;28;1569;-52
2021/07/04 01:08:28;;;;;;;18.38;16.48;;;;;;;17.14;85.51;100480.63;690364;28;1244;-55
2021/07/04 01:08:49;;;;;;;17.70;16.00;;;;;;;17.21;84.97;100476.00;691809;28;1232;-54
2021/07/04 01:09:09;;;;;;;17.75;16.05;;;;;;;17.26;84.67;100476.69;695091;28;1263;-52
2021/07/04 01:09:30;;;;;;;18.23;16.42;;;;;;;17.34;84.33;100473.78;692671;28;1460;-50
2021/07/04 01:09:52;;;;;;;17.95;16.25;;;;;;;17.37;84.12;100476.31;691343;28;3360;-53
2021/07/04 01:10:16;;;;;;;17.95;16.15;;;;;;;17.39;84.00;100478.88;691999;28;4398;-52
2021/07/04 01:10:38;;;;;;;17.80;16.05;;;;;;;17.42;83.65;100473.47;692482;28;1976;-51
2021/07/04 01:11:05;;;;;;;17.35;15.63;;;;;;;17.45;83.68;100473.41;692179;28;5020;-53
2021/07/04 01:11:27;;;;;;;17.98;16.17;;;;;;;17.45;83.91;100478.69;691747;28;1480;-53
2021/07/04 01:11:48;;;;;;;18.37;16.47;;;;;;;17.43;84.24;100476.09;692179;28;1449;-53
2021/07/04 01:12:09;;;;;;;19.45;17.45;;;;;;;17.42;85.02;100469.09;690601;28;1717;-53
2021/07/04 01:12:30;;;;;;;20.30;18.20;;;;;;;17.41;85.17;100471.78;691821;28;1499;-55
2021/07/04 01:12:52;;;;;;;19.37;17.33;;;;;;;17.36;85.92;100479.84;690345;28;1167;-51
2021/07/04 01:13:14;;;;;;;19.77;17.73;;;;;;;17.30;86.44;100474.81;692577;28;1025;-51
2021/07/04 01:13:41;;;;;;;19.70;17.70;;;;;;;17.24;86.87;100475.00;691539;28;4369;-52
2021/07/04 01:14:10;;;;;;;20.35;18.35;;;;;;;17.18;87.36;100476.09;695220;28;1264;-51
2021/07/04 01:14:31;;;;;;;21.00;19.00;;;;;;;17.16;87.31;100476.16;693181;28;2310;-50
2021/07/04 01:14:53;;;;;;;20.27;18.35;;;;;;;17.14;87.41;100478.00;692251;28;1551;-51
2021/07/04 01:15:17;;;;;;;20.77;18.67;;;;;;;17.11;87.74;100479.88;692660;28;1971;-51
2021/07/04 01:15:38;;;;;;;20.92;18.92;;;;;;;17.08;87.76;100477.34;690107;28;1157;-50
2021/07/04 01:16:01;;;;;;;20.20;18.08;;;;;;;17.08;86.64;100475.56;690998;28;1291;-51
2021/07/04 01:16:22;;;;;;;18.67;16.77;;;;;;;17.13;86.51;100480.69;690290;28;1468;-52
2021/07/04 01:16:44;;;;;;;18.60;16.80;;;;;;;17.15;85.80;100477.06;692999;28;4603;-51
2021/07/04 01:17:05;;;;;;;18.65;16.85;;;;;;;17.18;85.85;100478.72;691576;28;1590;-51
2021/07/04 01:17:27;;;;;;;18.23;16.42;;;;;;;17.22;85.18;100476.84;691875;28;4102;-51
2021/07/04 01:17:49;;;;;;;18.05;16.25;;;;;;;17.24;85.09;100481.16;694086;28;1289;-51
2021/07/04 01:18:10;;;;;;;19.00;17.20;;;;;;;17.24;86.21;100482.94;695318;28;1390;-51
2021/07/04 01:18:36;;;;;;;19.65;17.67;;;;;;;17.23;85.40;100479.44;694271;28;1685;-54
2021/07/04 01:18:59;;;;;;;19.90;17.67;;;;;;;17.24;86.13;100475.88;694091;28;1210;-50
2021/07/04 01:19:24;;;;;;;19.27;17.17;;;;;;;17.26;85.34;100471.41;695808;28;1247;-52
2021/07/04 01:19:45;;;;;;;18.92;16.92;;;;;;;17.28;85.35;100471.34;693770;28;4334;-51
2021/07/04 01:20:14;;;;;;;19.85;17.80;;;;;;;17.32;84.95;100475.59;692029;28;1453;-50
2021/07/04 01:20:37;;;;;;;19.75;17.35;;;;;;;17.33;85.35;100478.22;694296;28;1159;-53
2021/07/04 01:21:02;;;;;;;21.38;18.02;;;;;;;17.32;86.37;100481.75;696267;28;3554;-52
2021/07/04 01:21:24;;;;;;;21.17;18.83;;;;;;;17.29;86.51;100481.88;697178;28;1427;-50
2021/07/04 01:21:45;;;;;;;20.55;18.38;;;;;;;17.26;86.99;100473.19;697271;28;1377;-51
2021/07/04 01:22:06;;;;;;;21.63;19.40;;;;;;;17.22;87.33;100476.84;699171;28;1414;-50
2021/07/04 01:22:30;;;;;;;21.38;19.15;;;;;;;17.19;87.77;100480.47;696666;28;1254;-50
2021/07/04 01:23:00;;;;;;;21.15;19.00;;;;;;;17.15;87.93;100479.69;697477;28;4473;-50
2021/07/04 01:23:22;;;;;;;21.10;19.00;;;;;;;17.15;88.01;100481.50;697847;28;1170;-51
2021/07/04 01:23:44;;;;;;;21.23;19.05;;;;;;;17.12;88.08;100474.53;697699;28;1851;-50
2021/07/04 01:24:06;;;;;;;20.92;18.80;;;;;;;17.13;88.31;100472.78;700492;28;1075;-54
2021/07/04 01:24:26;;;;;;;20.35;18.27;;;;;;;17.12;88.10;100476.31;699430;28;1618;-51
2021/07/04 01:24:47;;;;;;;21.37;19.07;;;;;;;17.11;88.13;100474.59;699123;28;3580;-50
2021/07/04 01:25:10;;;;;;;21.10;19.05;;;;;;;17.09;88.46;100479.94;696721;28;1219;-50
2021/07/04 01:25:33;;;;;;;21.60;19.42;;;;;;;17.09;88.41;100484.34;694534;28;1298;-50
2021/07/04 01:25:55;;;;;;;20.70;18.67;;;;;;;17.08;88.00;100480.84;693920;28;4417;-52
2021/07/04 01:26:21;;;;;;;21.23;18.90;;;;;;;17.07;88.22;100473.84;696479;28;1438;-53
2021/07/04 01:26:42;;;;;;;21.17;18.88;;;;;;;17.07;88.39;100472.97;696473;28;1325;-51
2021/07/04 01:27:03;;;;;;;21.63;19.42;;;;;;;17.07;87.94;100475.59;696422;28;1544;-53
2021/07/04 01:27:24;;;;;;;20.58;18.48;;;;;;;17.05;87.45;100475.66;697795;28;1142;-51
2021/07/04 01:27:45;;;;;;;20.53;18.53;;;;;;;17.07;87.58;100475.59;694646;28;1441;-51
2021/07/04 01:28:05;;;;;;;20.42;18.42;;;;;;;17.07;87.63;100475.59;692760;28;1162;-50
2021/07/04 01:28:26;;;;;;;20.00;18.03;;;;;;;17.08;87.40;100474.69;693538;28;3400;-51
2021/07/04 01:28:50;;;;;;;20.33;18.33;;;;;;;17.08;87.78;100472.06;693598;28;4526;-50
2021/07/04 01:29:11;;;;;;;20.35;18.27;;;;;;;17.07;88.21;100472.97;696569;28;1002;-51
2021/07/04 01:29:32;;;;;;;21.45;19.25;;;;;;;17.04;88.41;100470.44;698474;28;1092;-50
2021/07/04 01:29:53;;;;;;;21.30;19.05;;;;;;;17.02;88.08;100468.72;697303;28;1456;-51
2021/07/04 01:30:14;;;;;;;21.10;18.90;;;;;;;17.04;88.00;100473.09;698187;28;1156;-52
2021/07/04 01:30:35;;;;;;;19.35;17.48;;;;;;;17.04;87.93;100468.66;696210;28;1967;-51
2021/07/04 01:30:58;;;;;;;18.20;16.40;;;;;;;17.06;86.87;100465.94;699185;28;1052;-51
2021/07/04 01:31:19;;;;;;;18.08;16.17;;;;;;;17.08;86.59;100470.28;698911;28;1253;-51
2021/07/04 01:31:48;;;;;;;19.05;17.10;;;;;;;17.09;87.23;100466.72;695866;28;4298;-54
2021/07/04 01:32:11;;;;;;;19.75;17.90;;;;;;;17.09;87.55;100472.00;694784;28;3872;-51
2021/07/04 01:32:32;;;;;;;19.20;17.23;;;;;;;17.09;87.01;100460.59;693241;28;1432;-51
2021/07/04 01:32:52;;;;;;;18.85;16.85;;;;;;;17.12;86.79;100468.41;693541;28;1472;-53
2021/07/04 01:33:13;;;;;;;19.13;17.15;;;;;;;17.12;86.84;100471.03;691883;28;1530;-51
2021/07/04 01:33:33;;;;;;;18.83;16.80;;;;;;;17.14;87.39;100469.19;690102;28;1244;-51
2021/07/04 01:33:56;;;;;;;19.38;17.45;;;;;;;17.11;87.99;100466.66;689704;28;1084;-51
2021/07/04 01:34:25;;;;;;;19.27;17.23;;;;;;;17.08;87.67;100470.28;691303;28;1426;-51
2021/07/04 01:34:46;;;;;;;20.03;17.93;;;;;;;17.07;88.14;100467.69;690654;28;4333;-51
2021/07/04 01:35:07;;;;;;;19.92;18.00;;;;;;;17.05;88.52;100467.75;691697;28;1037;-50
2021/07/04 01:35:28;;;;;;;20.48;18.35;;;;;;;17.02;88.48;100459.94;690983;28;2130;-53
2021/07/04 01:35:49;;;;;;;21.40;19.13;;;;;;;17.00;88.74;100465.28;689852;28;4176;-52
2021/07/04 01:36:11;;;;;;;21.40;19.33;;;;;;;16.98;88.77;100466.25;689685;28;1700;-51
2021/07/04 01:36:34;;;;;;;21.25;19.25;;;;;;;16.94;88.98;100461.97;692357;28;1369;-50
2021/07/04 01:36:55;;;;;;;21.80;19.58;;;;;;;16.92;89.31;100463.78;694058;28;1533;-52
2021/07/04 01:37:16;;;;;;;21.95;19.63;;;;;;;16.91;89.37;100464.72;693247;28;1256;-52
2021/07/04 01:37:37;;;;;;;21.65;19.45;;;;;;;16.91;89.08;100457.66;692417;28;1332;-52
2021/07/04 01:37:58;;;;;;;21.75;19.52;;;;;;;16.91;88.90;100460.31;691459;28;4746;-54
2021/07/04 01:38:19;;;;;;;21.85;19.55;;;;;;;16.91;89.04;100462.94;692382;28;1898;-53
2021/07/04 01:38:42;;;;;;;21.83;19.58;;;;;;;16.91;88.96;100462.94;691724;28;1454;-50
2021/07/04 01:39:07;;;;;;;21.13;19.00;;;;;;;16.92;88.42;100463.78;693238;28;2364;-50
2021/07/04 01:39:30;;;;;;;19.30;17.42;;;;;;;16.93;87.56;100463.72;693155;28;3657;-51
2021/07/04 01:39:56;;;;;;;18.95;17.15;;;;;;;16.98;87.22;100463.59;696088;28;1131;-50
2021/07/04 01:40:17;;;;;;;19.77;17.88;;;;;;;16.99;87.63;100462.69;699035;28;1576;-52
2021/07/04 01:40:39;;;;;;;19.60;17.60;;;;;;;17.00;87.46;100461.75;698338;28;1081;-50
2021/07/04 01:41:00;;;;;;;19.67;17.65;;;;;;;17.01;87.02;100463.47;696673;28;4311;-50
2021/07/04 01:41:21;;;;;;;18.83;16.92;;;;;;;17.01;88.09;100458.19;699069;28;1269;-51